createdAt,value
2017-08-20T00:00:04.897Z,2.27
2017-08-20T00:02:33.234Z,1.97
2017-08-20T00:05:01.548Z,2.03
2017-08-20T00:07:29.880Z,2.07
2017-08-20T00:09:58.326Z,2.07
2017-08-20T00:12:27.426Z,2.17
2017-08-20T00:14:55.725Z,1.83
2017-08-20T00:17:24.057Z,2.10
2017-08-20T00:19:52.364Z,2.00
2017-08-20T00:22:21.477Z,2.47
2017-08-20T00:24:49.781Z,2.23
2017-08-20T00:27:18.123Z,1.93
2017-08-20T00:29:47.203Z,2.47
2017-08-20T00:32:15.513Z,2.80
2017-08-20T00:34:43.833Z,2.17
2017-08-20T00:37:12.137Z,5.00
2017-08-20T00:39:41.246Z,3.47
2017-08-20T00:42:10.314Z,2.90
2017-08-20T00:44:38.664Z,3.10
2017-08-20T00:47:06.962Z,2.97
2017-08-20T00:49:35.297Z,3.00
2017-08-20T00:52:03.617Z,2.50
2017-08-20T00:54:31.962Z,2.87
2017-08-20T00:57:00.273Z,2.70
2017-08-20T00:59:28.614Z,2.63
2017-08-20T01:01:56.974Z,2.47
2017-08-20T01:04:25.281Z,2.13
2017-08-20T01:06:53.616Z,3.30
2017-08-20T01:09:21.927Z,2.63
2017-08-20T01:11:50.262Z,3.13
2017-08-20T01:14:18.578Z,2.50
2017-08-20T01:16:46.905Z,1.93
2017-08-20T01:19:15.209Z,1.90
2017-08-20T01:21:43.545Z,2.37
2017-08-20T01:24:11.855Z,2.13
2017-08-20T01:26:40.186Z,2.40
2017-08-20T01:29:08.497Z,2.43
2017-08-20T01:31:36.842Z,2.17
2017-08-20T01:34:05.140Z,1.60
2017-08-20T01:36:33.447Z,2.20
2017-08-20T01:39:01.793Z,2.40
2017-08-20T01:41:30.105Z,2.10
2017-08-20T01:43:59.209Z,2.47
2017-08-20T01:46:27.519Z,2.03
2017-08-20T01:48:55.850Z,2.10
2017-08-20T01:51:24.156Z,2.30
2017-08-20T01:53:52.510Z,2.80
2017-08-20T01:56:20.808Z,2.23
2017-08-20T01:58:49.901Z,2.00
2017-08-20T02:01:18.201Z,2.10
2017-08-20T02:03:46.557Z,2.03
2017-08-20T02:06:15.653Z,1.80
2017-08-20T02:08:43.981Z,2.07
2017-08-20T02:11:12.298Z,1.77
2017-08-20T02:13:40.613Z,2.10
2017-08-20T02:16:08.936Z,1.70
2017-08-20T02:18:37.251Z,2.70
2017-08-20T02:21:06.355Z,2.00
2017-08-20T02:23:34.685Z,2.53
2017-08-20T02:26:03.017Z,1.93
2017-08-20T02:28:32.100Z,1.90
2017-08-20T02:31:00.434Z,2.10
2017-08-20T02:33:28.741Z,2.40
2017-08-20T02:35:57.065Z,1.70
2017-08-20T02:38:25.384Z,2.33
2017-08-20T02:40:53.700Z,2.13
2017-08-20T02:43:22.460Z,2.70
2017-08-20T02:45:50.879Z,2.80
2017-08-20T02:48:19.193Z,2.07
2017-08-20T02:53:26.572Z,2.20
2017-08-20T02:55:54.912Z,2.60
2017-08-20T02:58:23.237Z,2.30
2017-08-20T03:00:51.554Z,2.90
2017-08-20T03:03:19.915Z,2.30
2017-08-20T03:05:48.246Z,2.43
2017-08-20T03:08:17.378Z,1.97
2017-08-20T03:10:45.688Z,2.30
2017-08-20T03:13:18.002Z,3.80
2017-08-20T03:15:47.078Z,2.40
2017-08-20T03:18:15.411Z,2.00
2017-08-20T03:20:43.721Z,2.60
2017-08-20T03:23:12.050Z,2.20
2017-08-20T03:25:40.365Z,2.30
2017-08-20T03:28:08.702Z,2.60
2017-08-20T03:30:37.026Z,2.60
2017-08-20T03:33:05.334Z,2.40
2017-08-20T03:35:33.674Z,2.00
2017-08-20T03:38:01.983Z,2.60
2017-08-20T03:40:30.324Z,2.80
2017-08-20T03:42:58.634Z,2.20
2017-08-20T03:45:26.978Z,2.30
2017-08-20T03:47:55.289Z,2.90
2017-08-20T03:50:23.618Z,2.53
2017-08-20T03:52:51.921Z,2.77
2017-08-20T03:55:23.830Z,3.00
2017-08-20T03:57:52.914Z,2.30
2017-08-20T04:00:21.259Z,2.77
2017-08-20T04:02:49.568Z,2.10
2017-08-20T04:05:17.906Z,2.43
2017-08-20T04:07:46.209Z,2.57
2017-08-20T04:10:14.549Z,2.77
2017-08-20T04:12:42.866Z,2.50
2017-08-20T04:15:11.174Z,3.63
2017-08-20T04:17:40.273Z,2.30
2017-08-20T04:20:09.336Z,2.27
2017-08-20T04:22:37.692Z,2.60
2017-08-20T04:25:06.010Z,2.60
2017-08-20T04:27:34.394Z,3.13
2017-08-20T04:30:03.480Z,2.73
2017-08-20T04:32:33.737Z,2.43
2017-08-20T04:35:02.880Z,2.57
2017-08-20T04:37:31.216Z,2.47
2017-08-20T04:39:59.524Z,2.50
2017-08-20T04:42:27.858Z,3.10
2017-08-20T04:45:07.490Z,2.60
2017-08-20T04:47:35.842Z,2.67
2017-08-20T04:50:04.141Z,2.70
2017-08-20T04:52:32.467Z,2.90
2017-08-20T04:55:00.814Z,2.83
2017-08-20T04:57:29.131Z,2.70
2017-08-20T04:59:57.470Z,2.17
2017-08-20T05:02:25.791Z,2.57
2017-08-20T05:04:58.015Z,2.60
2017-08-20T05:07:27.095Z,2.80
2017-08-20T05:09:55.422Z,2.27
2017-08-20T05:12:23.741Z,2.13
2017-08-20T05:14:52.073Z,2.53
2017-08-20T05:17:21.325Z,2.30
2017-08-20T05:19:49.665Z,2.90
2017-08-20T05:22:17.982Z,2.10
2017-08-20T05:24:48.673Z,2.13
2017-08-20T05:27:16.994Z,2.53
2017-08-20T05:29:45.341Z,1.93
2017-08-20T05:32:13.651Z,2.60
2017-08-20T05:37:06.961Z,2.60
2017-08-20T05:39:36.038Z,2.00
2017-08-20T05:42:05.342Z,1.97
2017-08-20T05:44:33.926Z,1.80
2017-08-20T05:47:02.253Z,1.97
2017-08-20T05:49:30.586Z,2.00
2017-08-20T05:51:58.927Z,1.97
2017-08-20T05:54:27.254Z,2.17
2017-08-20T05:56:55.591Z,2.27
2017-08-20T05:59:23.905Z,1.40
2017-08-20T06:01:53.022Z,1.83
2017-08-20T06:04:21.335Z,1.80
2017-08-20T06:06:49.657Z,2.20
2017-08-20T06:09:18.771Z,1.17
2017-08-20T06:11:47.084Z,1.63
2017-08-20T06:14:15.428Z,1.70
2017-08-20T06:16:43.729Z,1.73
2017-08-20T06:19:12.075Z,1.90
2017-08-20T06:21:41.156Z,1.70
2017-08-20T06:24:09.489Z,1.53
2017-08-20T06:26:37.858Z,1.33
2017-08-20T06:29:06.199Z,1.43
2017-08-20T06:31:34.538Z,1.63
2017-08-20T06:34:02.895Z,1.60
2017-08-20T06:36:31.202Z,1.33
2017-08-20T06:38:59.515Z,1.73
2017-08-20T06:41:28.622Z,1.63
2017-08-20T06:43:56.958Z,1.57
2017-08-20T06:46:25.294Z,1.50
2017-08-20T06:48:53.597Z,1.50
2017-08-20T06:51:21.929Z,1.23
2017-08-20T06:53:50.238Z,1.90
2017-08-20T06:56:18.578Z,1.40
2017-08-20T06:58:46.890Z,1.60
2017-08-20T07:01:15.229Z,2.07
2017-08-20T07:03:43.541Z,1.20
2017-08-20T07:06:11.877Z,1.47
2017-08-20T07:08:40.185Z,1.40
2017-08-20T07:11:09.291Z,2.03
2017-08-20T07:13:37.648Z,1.30
2017-08-20T07:16:05.957Z,1.57
2017-08-20T07:18:34.291Z,1.20
2017-08-20T07:21:02.621Z,1.40
2017-08-20T07:23:30.955Z,1.60
2017-08-20T07:25:59.267Z,1.60
2017-08-20T07:28:27.618Z,1.50
2017-08-20T07:30:55.935Z,1.63
2017-08-20T07:33:24.274Z,1.87
2017-08-20T07:35:52.603Z,1.80
2017-08-20T07:38:20.929Z,1.50
2017-08-20T07:40:49.246Z,1.80
2017-08-20T07:43:17.599Z,1.80
2017-08-20T07:45:45.915Z,1.60
2017-08-20T07:48:14.243Z,1.70
2017-08-20T07:50:42.545Z,1.70
2017-08-20T07:53:10.886Z,2.50
2017-08-20T07:55:39.202Z,1.73
2017-08-20T07:58:07.510Z,1.60
2017-08-20T08:00:35.848Z,1.50
2017-08-20T08:03:04.183Z,1.87
2017-08-20T08:05:32.503Z,1.50
2017-08-20T08:08:01.573Z,1.50
2017-08-20T08:10:29.903Z,1.70
2017-08-20T08:12:58.221Z,1.50
2017-08-20T08:15:26.550Z,1.67
2017-08-20T08:17:55.328Z,1.17
2017-08-20T08:20:24.421Z,1.20
2017-08-20T08:22:53.494Z,1.43
2017-08-20T08:25:21.827Z,1.47
2017-08-20T08:27:50.139Z,2.03
2017-08-20T08:30:18.450Z,1.80
2017-08-20T08:32:46.782Z,1.53
2017-08-20T08:35:15.097Z,1.20
2017-08-20T08:37:43.451Z,1.77
2017-08-20T08:40:11.737Z,1.80
2017-08-20T08:42:40.062Z,1.60
2017-08-20T08:45:08.385Z,1.73
2017-08-20T08:47:36.868Z,1.60
2017-08-20T08:50:05.181Z,1.53
2017-08-20T08:52:33.507Z,1.50
2017-08-20T08:55:01.809Z,1.40
2017-08-20T08:57:30.146Z,1.30
2017-08-20T08:59:58.450Z,2.03
2017-08-20T09:02:26.765Z,1.50
2017-08-20T09:04:55.103Z,1.70
2017-08-20T09:07:23.407Z,1.93
2017-08-20T09:09:53.757Z,1.80
2017-08-20T09:12:22.058Z,1.83
2017-08-20T09:14:50.388Z,1.37
2017-08-20T09:17:18.703Z,1.73
2017-08-20T09:19:47.045Z,1.50
2017-08-20T09:22:15.361Z,1.20
2017-08-20T09:24:43.697Z,1.70
2017-08-20T09:27:12.016Z,1.60
2017-08-20T09:29:40.354Z,1.63
2017-08-20T09:32:08.663Z,1.73
2017-08-20T09:34:37.774Z,1.80
2017-08-20T09:37:06.117Z,1.37
2017-08-20T09:39:34.433Z,1.60
2017-08-20T09:42:02.762Z,1.23
2017-08-20T09:44:31.069Z,1.50
2017-08-20T09:46:59.404Z,1.60
2017-08-20T09:49:27.709Z,1.97
2017-08-20T09:51:56.047Z,1.30
2017-08-20T09:54:24.351Z,1.73
2017-08-20T09:56:52.684Z,2.00
2017-08-20T09:59:20.981Z,1.73
2017-08-20T10:01:49.337Z,1.53
2017-08-20T10:04:17.652Z,2.10
2017-08-20T10:06:46.536Z,1.70
2017-08-20T10:09:14.872Z,1.40
2017-08-20T10:11:43.178Z,1.53
2017-08-20T10:14:11.505Z,1.30
2017-08-20T10:16:39.819Z,1.50
2017-08-20T10:19:08.159Z,1.80
2017-08-20T10:21:36.465Z,1.50
2017-08-20T10:24:05.575Z,1.33
2017-08-20T10:26:33.877Z,1.30
2017-08-20T10:29:02.211Z,1.50
2017-08-20T10:31:31.274Z,2.17
2017-08-20T10:33:59.603Z,1.30
2017-08-20T10:36:27.928Z,1.10
2017-08-20T10:38:56.266Z,1.80
2017-08-20T10:41:24.570Z,1.60
2017-08-20T10:43:52.865Z,1.17
2017-08-20T10:46:21.189Z,1.10
2017-08-20T10:48:50.266Z,1.57
2017-08-20T10:51:18.590Z,1.33
2017-08-20T10:53:46.900Z,1.27
2017-08-20T10:56:15.230Z,1.13
2017-08-20T10:58:43.540Z,1.30
2017-08-20T11:01:11.880Z,1.70
2017-08-20T11:03:40.942Z,1.40
2017-08-20T11:06:09.269Z,1.10
2017-08-20T11:08:37.607Z,1.53
2017-08-20T11:11:05.942Z,1.40
2017-08-20T11:13:34.254Z,1.47
2017-08-20T11:16:02.602Z,2.17
2017-08-20T11:18:30.914Z,1.30
2017-08-20T11:20:59.228Z,1.23
2017-08-20T11:23:27.583Z,1.10
2017-08-20T11:25:55.885Z,2.00
2017-08-20T11:28:27.837Z,1.57
2017-08-20T11:30:56.145Z,1.20
2017-08-20T11:33:24.486Z,0.93
2017-08-20T11:35:53.565Z,1.50
2017-08-20T11:38:21.908Z,1.37
2017-08-20T11:40:50.202Z,1.53
2017-08-20T11:43:18.529Z,1.07
2017-08-20T11:45:46.833Z,1.43
2017-08-20T11:48:15.160Z,1.00
2017-08-20T11:50:43.467Z,1.17
2017-08-20T11:53:11.814Z,1.20
2017-08-20T11:55:40.118Z,1.03
2017-08-20T11:58:08.427Z,1.07
2017-08-20T12:00:36.749Z,1.40
2017-08-20T12:03:05.837Z,1.30
2017-08-20T12:05:34.167Z,1.37
2017-08-20T12:08:02.473Z,1.13
2017-08-20T12:10:30.798Z,1.40
2017-08-20T12:12:59.105Z,1.20
2017-08-20T12:15:27.437Z,1.47
2017-08-20T12:17:55.740Z,1.43
2017-08-20T12:20:24.058Z,1.10
2017-08-20T12:22:52.364Z,1.57
2017-08-20T12:25:20.702Z,1.50
2017-08-20T12:27:49.010Z,1.60
2017-08-20T12:30:17.314Z,1.17
2017-08-20T12:32:45.652Z,1.40
2017-08-20T12:35:13.954Z,1.57
2017-08-20T12:37:42.324Z,1.20
2017-08-20T12:40:10.625Z,1.77
2017-08-20T12:42:38.955Z,1.50
2017-08-20T12:45:07.267Z,1.20
2017-08-20T12:47:35.603Z,1.40
2017-08-20T12:50:03.911Z,1.33
2017-08-20T12:52:32.244Z,1.40
2017-08-20T12:55:00.560Z,1.70
2017-08-20T12:57:28.898Z,1.50
2017-08-20T12:59:57.213Z,1.30
2017-08-20T13:02:25.513Z,1.00
2017-08-20T13:04:53.851Z,1.50
2017-08-20T13:07:22.161Z,1.73
2017-08-20T13:09:50.489Z,1.30
2017-08-20T13:12:18.800Z,1.23
2017-08-20T13:14:47.130Z,1.67
2017-08-20T13:17:15.445Z,1.57
2017-08-20T13:19:43.778Z,1.30
2017-08-20T13:22:12.092Z,1.47
2017-08-20T13:24:40.427Z,1.30
2017-08-20T13:27:08.729Z,1.63
2017-08-20T13:29:37.076Z,1.80
2017-08-20T13:32:05.381Z,1.23
2017-08-20T13:34:33.682Z,1.27
2017-08-20T13:37:02.025Z,1.20
2017-08-20T13:39:31.104Z,1.30
2017-08-20T13:41:59.449Z,1.23
2017-08-20T13:44:27.758Z,1.30
2017-08-20T13:46:56.090Z,1.33
2017-08-20T13:49:24.397Z,1.30
2017-08-20T13:51:52.722Z,1.50
2017-08-20T13:54:21.062Z,1.57
2017-08-20T13:56:49.398Z,1.40
2017-08-20T13:59:17.706Z,1.77
2017-08-20T14:01:46.032Z,1.77
2017-08-20T14:04:15.106Z,1.40
2017-08-20T14:06:43.418Z,1.40
2017-08-20T14:09:11.747Z,1.70
2017-08-20T14:11:40.059Z,1.33
2017-08-20T14:14:09.152Z,1.33
2017-08-20T14:16:38.267Z,1.50
2017-08-20T14:19:06.593Z,1.30
2017-08-20T14:21:34.926Z,1.30
2017-08-20T14:24:03.268Z,1.00
2017-08-20T14:26:32.499Z,1.27
2017-08-20T14:29:00.837Z,1.57
2017-08-20T14:31:29.141Z,1.17
2017-08-20T14:33:57.500Z,1.93
2017-08-20T14:36:25.810Z,1.80
2017-08-20T14:38:54.126Z,1.70
2017-08-20T14:41:22.454Z,1.40
2017-08-20T14:43:50.771Z,1.30
2017-08-20T14:46:19.092Z,1.23
2017-08-20T14:48:47.410Z,1.77
2017-08-20T14:51:15.743Z,1.37
2017-08-20T14:53:44.046Z,1.67
2017-08-20T14:56:13.146Z,1.57
2017-08-20T14:58:41.459Z,1.90
2017-08-20T15:01:09.817Z,1.57
2017-08-20T15:03:38.131Z,1.30
2017-08-20T15:06:06.435Z,1.40
2017-08-20T15:08:34.761Z,1.30
2017-08-20T15:11:03.070Z,1.40
2017-08-20T15:13:31.406Z,1.20
2017-08-20T15:15:59.701Z,2.20
2017-08-20T15:18:28.035Z,1.67
2017-08-20T15:20:57.158Z,1.60
2017-08-20T15:23:25.494Z,1.70
2017-08-20T15:25:53.810Z,1.07
2017-08-20T15:28:22.141Z,1.20
2017-08-20T15:30:50.474Z,1.73
2017-08-20T15:33:18.778Z,1.47
2017-08-20T15:35:47.113Z,1.10
2017-08-20T15:38:15.439Z,1.07
2017-08-20T15:40:43.770Z,1.37
2017-08-20T15:43:12.846Z,1.47
2017-08-20T15:45:41.183Z,1.57
2017-08-20T15:48:09.489Z,1.30
2017-08-20T15:50:37.826Z,1.13
2017-08-20T15:53:06.143Z,1.20
2017-08-20T15:55:34.481Z,1.40
2017-08-20T15:58:02.787Z,1.53
2017-08-20T16:00:31.094Z,1.47
2017-08-20T16:02:59.435Z,1.27
2017-08-20T16:05:27.743Z,1.10
2017-08-20T16:07:56.080Z,1.90
2017-08-20T16:10:24.382Z,1.67
2017-08-20T16:12:52.711Z,1.20
2017-08-20T16:15:21.024Z,1.60
2017-08-20T16:17:49.356Z,1.57
2017-08-20T16:20:18.438Z,1.40
2017-08-20T16:22:46.782Z,1.40
2017-08-20T16:25:15.085Z,1.47
2017-08-20T16:27:43.396Z,1.30
2017-08-20T16:30:11.738Z,1.43
2017-08-20T16:32:40.059Z,1.27
2017-08-20T16:35:08.390Z,1.20
2017-08-20T16:37:36.685Z,1.70
2017-08-20T16:40:05.027Z,1.40
2017-08-20T16:42:33.336Z,1.70
2017-08-20T16:45:01.670Z,1.50
2017-08-20T16:47:29.985Z,1.83
2017-08-20T16:49:58.327Z,1.33
2017-08-20T16:52:26.643Z,1.63
2017-08-20T16:54:54.974Z,1.47
2017-08-20T16:57:23.286Z,1.40
2017-08-20T16:59:51.597Z,1.20
2017-08-20T17:02:19.922Z,1.60
2017-08-20T17:04:48.243Z,1.97
2017-08-20T17:07:16.574Z,1.50
2017-08-20T17:09:44.888Z,1.67
2017-08-20T17:12:13.227Z,1.43
2017-08-20T17:14:41.562Z,1.63
2017-08-20T17:17:10.660Z,1.63
2017-08-20T17:19:40.963Z,1.90
2017-08-20T17:22:09.287Z,1.77
2017-08-20T17:24:37.589Z,1.70
2017-08-20T17:27:06.954Z,2.30
2017-08-20T17:29:35.293Z,2.07
2017-08-20T17:32:03.603Z,1.97
2017-08-20T17:34:35.769Z,1.27
2017-08-20T17:37:04.846Z,1.67
2017-08-20T17:39:33.186Z,1.70
2017-08-20T17:42:01.504Z,1.80
2017-08-20T17:44:29.862Z,1.80
2017-08-20T17:46:58.171Z,1.63
2017-08-20T17:49:26.514Z,1.83
2017-08-20T17:51:55.902Z,2.23
2017-08-20T17:54:24.225Z,1.23
2017-08-20T17:56:52.536Z,1.57
2017-08-20T17:59:20.907Z,1.80
2017-08-20T18:01:49.221Z,1.83
2017-08-20T18:04:17.516Z,1.50
2017-08-20T18:06:45.849Z,1.83
2017-08-20T18:09:14.909Z,2.00
2017-08-20T18:11:43.251Z,2.73
2017-08-20T18:14:11.554Z,1.60
2017-08-20T18:16:39.878Z,1.87
2017-08-20T18:19:08.191Z,2.20
2017-08-20T18:21:38.455Z,2.17
2017-08-20T18:24:06.767Z,2.13
2017-08-20T18:26:35.120Z,1.40
2017-08-20T18:29:09.017Z,2.07
2017-08-20T18:31:40.899Z,1.87
2017-08-20T18:34:10.130Z,2.30
2017-08-20T18:36:38.501Z,1.90
2017-08-20T18:39:07.792Z,1.93
2017-08-20T18:41:37.044Z,2.00
2017-08-20T18:44:07.685Z,1.90
2017-08-20T18:46:36.008Z,2.10
2017-08-20T18:49:04.385Z,2.03
2017-08-20T18:51:32.710Z,2.40
2017-08-20T18:54:01.038Z,1.97
2017-08-20T18:56:29.346Z,2.10
2017-08-20T18:58:59.629Z,1.70
2017-08-20T19:01:28.902Z,2.53
2017-08-20T19:03:57.202Z,1.93
2017-08-20T19:06:26.503Z,1.70
2017-08-20T19:08:55.585Z,2.40
2017-08-20T19:11:23.927Z,2.23
2017-08-20T19:13:52.238Z,2.17
2017-08-20T19:16:20.568Z,2.13
2017-08-20T19:18:48.894Z,3.17
2017-08-20T19:21:17.238Z,2.90
2017-08-20T19:23:45.551Z,2.10
2017-08-20T19:26:13.918Z,1.83
2017-08-20T19:28:42.221Z,1.97
2017-08-20T19:31:10.523Z,2.27
2017-08-20T19:33:38.847Z,2.23
2017-08-20T19:36:07.175Z,2.60
2017-08-20T19:38:35.510Z,2.00
2017-08-20T19:41:03.813Z,2.40
2017-08-20T19:43:32.142Z,2.00
2017-08-20T19:46:00.448Z,2.27
2017-08-20T19:48:28.784Z,2.33
2017-08-20T19:50:57.113Z,2.43
2017-08-20T19:53:25.458Z,1.73
2017-08-20T19:55:53.799Z,2.00
2017-08-20T19:58:22.865Z,2.20
2017-08-20T20:00:51.196Z,2.10
2017-08-20T20:03:19.516Z,2.20
2017-08-20T20:05:47.849Z,2.27
2017-08-20T20:08:16.182Z,2.20
2017-08-20T20:10:44.510Z,2.20
2017-08-20T20:13:12.819Z,2.50
2017-08-20T20:15:41.172Z,2.13
2017-08-20T20:18:09.481Z,2.63
2017-08-20T20:20:37.818Z,2.53
2017-08-20T20:23:06.134Z,1.97
2017-08-20T20:25:34.477Z,2.60
2017-08-20T20:28:04.743Z,2.23
2017-08-20T20:30:33.058Z,2.53
2017-08-20T20:33:01.387Z,2.30
2017-08-20T20:35:29.725Z,2.20
2017-08-20T20:37:58.072Z,2.50
2017-08-20T20:40:26.383Z,2.50
2017-08-20T20:42:54.705Z,2.73
2017-08-20T20:45:23.010Z,2.63
2017-08-20T20:47:51.343Z,2.30
2017-08-20T20:50:19.665Z,2.50
2017-08-20T20:52:48.005Z,2.70
2017-08-20T20:55:16.412Z,2.33
2017-08-20T20:57:44.757Z,2.30
2017-08-20T21:00:13.067Z,2.40
2017-08-20T21:02:41.543Z,2.33
2017-08-20T21:05:09.872Z,2.60
2017-08-20T21:07:38.222Z,3.50
2017-08-20T21:10:06.560Z,2.40
2017-08-20T21:12:34.886Z,2.60
2017-08-20T21:15:03.985Z,3.37
2017-08-20T21:17:33.063Z,2.53
2017-08-20T21:20:01.410Z,2.60
2017-08-20T21:22:29.713Z,3.20
2017-08-20T21:24:58.048Z,3.03
2017-08-20T21:27:26.364Z,2.60
2017-08-20T21:29:54.695Z,2.40
2017-08-20T21:32:22.998Z,2.63
2017-08-20T21:34:51.333Z,2.80
2017-08-20T21:37:19.680Z,2.63
2017-08-20T21:39:47.995Z,2.47
2017-08-20T21:42:16.342Z,2.37
2017-08-20T21:44:44.653Z,2.60
2017-08-20T21:47:12.977Z,2.67
2017-08-20T21:49:41.281Z,2.80
2017-08-20T21:52:09.633Z,2.83
2017-08-20T21:54:37.947Z,2.77
2017-08-20T21:57:06.293Z,2.63
2017-08-20T21:59:38.188Z,2.20
2017-08-20T22:02:06.547Z,2.30
2017-08-20T22:04:34.861Z,2.37
2017-08-20T22:07:03.175Z,3.27
2017-08-20T22:09:31.546Z,2.87
2017-08-20T22:11:59.854Z,3.97
2017-08-20T22:14:28.199Z,2.60
2017-08-20T22:16:56.508Z,2.80
2017-08-20T22:19:24.847Z,2.83
2017-08-20T22:21:53.158Z,2.93
2017-08-20T22:24:21.504Z,2.87
2017-08-20T22:26:49.801Z,3.03
2017-08-20T22:29:18.148Z,2.50
2017-08-20T22:31:47.238Z,2.70
2017-08-20T22:34:15.542Z,2.50
2017-08-20T22:36:43.876Z,2.30
2017-08-20T22:39:15.835Z,2.53
2017-08-20T22:41:44.163Z,2.20
2017-08-20T22:44:12.482Z,2.93
2017-08-20T22:46:40.827Z,2.23
2017-08-20T22:49:09.154Z,2.43
2017-08-20T22:51:37.526Z,2.00
2017-08-20T22:54:05.853Z,2.50
2017-08-20T22:56:34.202Z,2.37
2017-08-20T22:59:03.286Z,2.43
2017-08-20T23:01:31.651Z,2.97
2017-08-20T23:03:59.991Z,2.97
2017-08-20T23:06:28.339Z,2.70
2017-08-20T23:08:56.675Z,2.67
2017-08-20T23:11:24.990Z,2.60
2017-08-20T23:13:53.327Z,2.40
2017-08-20T23:16:21.652Z,3.77
2017-08-20T23:18:50.028Z,2.77
2017-08-20T23:21:18.344Z,2.67
2017-08-20T23:23:46.702Z,3.17
2017-08-20T23:26:15.779Z,3.40
2017-08-20T23:28:44.109Z,3.40
2017-08-20T23:31:12.437Z,3.57
2017-08-20T23:33:41.551Z,2.73
2017-08-20T23:36:10.629Z,3.47
2017-08-20T23:38:38.981Z,2.80
2017-08-20T23:41:07.295Z,2.90
2017-08-20T23:43:35.669Z,3.43
2017-08-20T23:46:03.998Z,2.90
2017-08-20T23:48:32.310Z,3.50
2017-08-20T23:51:00.637Z,2.93
2017-08-20T23:53:29.001Z,3.10
2017-08-20T23:55:57.338Z,3.37
2017-08-20T23:58:25.654Z,4.07
